createdAt,value
2019-02-10T00:01:05.947Z,9.40
2019-02-10T00:03:34.935Z,9.30
2019-02-10T00:06:04.087Z,9.30
2019-02-10T00:08:33.178Z,9.30
2019-02-10T00:11:02.148Z,9.10
2019-02-10T00:13:33.431Z,9.10
2019-02-10T00:16:05.591Z,9.10
2019-02-10T00:18:34.632Z,9.10
2019-02-10T00:21:03.730Z,9.00
2019-02-10T00:23:32.720Z,9.10
2019-02-10T00:26:01.747Z,9.00
2019-02-10T00:28:30.806Z,9.00
2019-02-10T00:30:59.776Z,9.00
2019-02-10T00:33:28.790Z,9.10
2019-02-10T00:35:57.750Z,9.00
2019-02-10T00:38:26.778Z,9.00
2019-02-10T00:40:55.751Z,9.00
2019-02-10T00:43:24.721Z,9.00
2019-02-10T00:45:53.909Z,9.00
2019-02-10T00:48:22.938Z,9.00
2019-02-10T00:50:51.990Z,8.90
2019-02-10T00:53:21.034Z,8.90
2019-02-10T00:55:49.998Z,9.00
2019-02-10T00:58:18.959Z,9.00
2019-02-10T01:00:47.959Z,8.90
2019-02-10T01:03:22.554Z,9.00
2019-02-10T01:05:51.531Z,9.00
2019-02-10T01:08:20.493Z,9.00
2019-02-10T01:10:49.682Z,8.90
2019-02-10T01:13:18.653Z,8.90
2019-02-10T01:15:47.685Z,9.00
2019-02-10T01:18:16.653Z,9.00
2019-02-10T01:20:45.703Z,8.90
2019-02-10T01:23:15.007Z,9.00
2019-02-10T01:25:44.139Z,9.00
2019-02-10T01:28:13.239Z,9.10
2019-02-10T01:30:42.592Z,9.10
2019-02-10T01:33:11.622Z,9.10
2019-02-10T01:35:40.610Z,9.10
2019-02-10T01:38:09.663Z,9.10
2019-02-10T01:40:38.929Z,9.00
2019-02-10T01:43:07.954Z,9.10
2019-02-10T01:45:36.993Z,9.10
2019-02-10T01:48:06.022Z,9.00
2019-02-10T01:50:34.993Z,9.00
2019-02-10T01:53:03.973Z,9.10
2019-02-10T01:55:33.101Z,9.10
2019-02-10T01:58:02.368Z,9.10
2019-02-10T02:00:31.519Z,9.00
2019-02-10T02:03:00.490Z,9.10
2019-02-10T02:05:29.448Z,9.10
2019-02-10T02:07:59.848Z,9.00
2019-02-10T02:10:29.190Z,9.00
2019-02-10T02:12:58.154Z,9.00
2019-02-10T02:15:27.254Z,9.10
2019-02-10T02:17:56.212Z,9.10
2019-02-10T02:20:25.187Z,9.10
2019-02-10T02:22:54.338Z,9.00
2019-02-10T02:25:23.343Z,9.10
2019-02-10T02:27:52.305Z,9.20
2019-02-10T02:30:21.288Z,9.20
2019-02-10T02:32:50.312Z,9.20
2019-02-10T02:35:19.298Z,9.20
2019-02-10T02:37:48.265Z,9.20
2019-02-10T02:40:17.241Z,9.20
2019-02-10T02:42:46.292Z,9.20
2019-02-10T02:45:15.443Z,9.30
2019-02-10T02:47:44.401Z,9.20
2019-02-10T02:50:13.391Z,9.20
2019-02-10T02:52:42.403Z,9.20
2019-02-10T02:55:11.518Z,9.30
2019-02-10T02:57:40.480Z,9.30
2019-02-10T03:00:10.799Z,9.30
2019-02-10T03:02:39.819Z,9.30
2019-02-10T03:05:10.290Z,9.20
2019-02-10T03:07:39.271Z,9.20
2019-02-10T03:10:09.391Z,9.30
2019-02-10T03:12:38.354Z,9.30
2019-02-10T03:15:08.974Z,9.20
2019-02-10T03:17:38.008Z,9.20
2019-02-10T03:20:10.491Z,9.10
2019-02-10T03:22:39.581Z,9.20
2019-02-10T03:25:08.899Z,9.10
2019-02-10T03:27:37.855Z,9.20
2019-02-10T03:30:11.786Z,9.20
2019-02-10T03:32:41.184Z,9.20
2019-02-10T03:35:10.395Z,9.20
2019-02-10T03:37:39.366Z,9.20
2019-02-10T03:40:09.971Z,9.20
2019-02-10T03:42:39.015Z,9.20
2019-02-10T03:45:09.413Z,9.20
2019-02-10T03:47:38.491Z,9.20
2019-02-10T03:50:09.675Z,9.10
2019-02-10T03:52:38.728Z,9.10
2019-02-10T03:55:10.563Z,9.20
2019-02-10T03:57:39.827Z,9.20
2019-02-10T04:00:12.992Z,9.20
2019-02-10T04:02:42.211Z,9.20
2019-02-10T04:05:11.760Z,9.20
2019-02-10T04:07:40.731Z,9.20
2019-02-10T04:10:10.851Z,9.20
2019-02-10T04:12:39.892Z,9.20
2019-02-10T04:15:09.182Z,9.20
2019-02-10T04:17:38.337Z,9.20
2019-02-10T04:20:09.033Z,9.20
2019-02-10T04:22:38.025Z,9.20
2019-02-10T04:25:07.554Z,9.20
2019-02-10T04:27:36.526Z,9.20
2019-02-10T04:30:09.287Z,9.20
2019-02-10T04:32:38.565Z,9.20
2019-02-10T04:35:07.586Z,9.20
2019-02-10T04:37:44.982Z,9.20
2019-02-10T04:40:07.863Z,9.10
2019-02-10T04:42:36.837Z,9.10
2019-02-10T04:45:06.342Z,9.10
2019-02-10T04:47:35.336Z,9.10
2019-02-10T04:50:05.920Z,9.20
2019-02-10T04:52:35.078Z,9.10
2019-02-10T04:55:04.982Z,9.20
2019-02-10T04:57:33.980Z,9.20
2019-02-10T05:00:03.215Z,9.20
2019-02-10T05:02:32.185Z,9.20
2019-02-10T05:05:01.253Z,9.30
2019-02-10T05:07:30.225Z,9.30
2019-02-10T05:09:59.181Z,9.20
2019-02-10T05:12:28.206Z,9.20
2019-02-10T05:14:57.179Z,9.10
2019-02-10T05:17:26.191Z,9.10
2019-02-10T05:19:55.148Z,9.10
2019-02-10T05:22:24.218Z,9.10
2019-02-10T05:24:53.243Z,9.20
2019-02-10T05:27:22.220Z,9.10
2019-02-10T05:29:51.282Z,9.10
2019-02-10T05:32:20.256Z,9.00
2019-02-10T05:34:49.217Z,9.10
2019-02-10T05:37:18.190Z,9.10
2019-02-10T05:39:47.256Z,9.20
2019-02-10T05:42:16.290Z,9.20
2019-02-10T05:44:45.253Z,9.20
2019-02-10T05:47:14.238Z,9.20
2019-02-10T05:49:43.205Z,9.20
2019-02-10T05:52:12.339Z,9.10
2019-02-10T05:54:41.302Z,9.20
2019-02-10T05:57:10.283Z,9.20
2019-02-10T05:59:39.219Z,9.20
2019-02-10T06:02:19.097Z,9.10
2019-02-10T06:04:48.054Z,9.20
2019-02-10T06:07:17.420Z,9.20
2019-02-10T06:09:46.439Z,9.20
2019-02-10T06:12:15.419Z,9.20
2019-02-10T06:14:44.382Z,9.20
2019-02-10T06:17:16.490Z,9.20
2019-02-10T06:19:45.458Z,9.10
2019-02-10T06:22:14.435Z,9.20
2019-02-10T06:24:43.396Z,9.10
2019-02-10T06:27:12.364Z,9.20
2019-02-10T06:29:41.350Z,9.20
2019-02-10T06:32:10.388Z,9.20
2019-02-10T06:34:39.340Z,9.20
2019-02-10T06:37:08.386Z,9.20
2019-02-10T06:39:37.338Z,9.20
2019-02-10T06:42:06.339Z,9.20
2019-02-10T06:44:35.291Z,9.20
2019-02-10T06:47:04.294Z,9.20
2019-02-10T06:49:33.269Z,9.40
2019-02-10T06:52:02.231Z,9.40
2019-02-10T06:54:31.214Z,9.40
2019-02-10T06:57:00.182Z,9.40
2019-02-10T06:59:33.547Z,9.40
2019-02-10T07:02:04.138Z,9.50
2019-02-10T07:04:33.294Z,9.40
2019-02-10T07:07:02.255Z,9.40
2019-02-10T07:09:31.233Z,9.50
2019-02-10T07:12:03.429Z,9.30
2019-02-10T07:14:32.491Z,9.40
2019-02-10T07:17:04.504Z,9.40
2019-02-10T07:19:53.260Z,9.40
2019-02-10T07:22:34.209Z,9.50
2019-02-10T07:25:18.278Z,9.40
2019-02-10T07:28:02.105Z,9.30
2019-02-10T07:30:37.026Z,9.30
2019-02-10T07:33:09.031Z,9.40
2019-02-10T07:35:52.344Z,9.30
2019-02-10T07:38:39.469Z,9.20
2019-02-10T07:41:36.903Z,9.30
2019-02-10T07:44:17.709Z,9.40
2019-02-10T07:47:13.269Z,9.10
2019-02-10T07:50:14.039Z,9.30
2019-02-10T07:52:46.099Z,9.30
2019-02-10T07:55:35.470Z,9.20
2019-02-10T07:58:13.391Z,9.30
2019-02-10T08:01:00.331Z,9.20
2019-02-10T08:03:32.447Z,9.30
2019-02-10T08:06:15.769Z,9.20
2019-02-10T08:08:59.625Z,9.30
2019-02-10T08:11:37.395Z,9.30
2019-02-10T08:14:25.610Z,9.30
2019-02-10T08:17:14.186Z,9.40
2019-02-10T08:20:00.929Z,9.30
2019-02-10T08:22:45.284Z,9.40
2019-02-10T08:25:23.235Z,9.50
2019-02-10T08:28:06.566Z,9.40
2019-02-10T08:30:57.766Z,9.40
2019-02-10T08:33:35.799Z,9.50
2019-02-10T08:36:25.916Z,9.50
2019-02-10T08:38:58.080Z,9.40
2019-02-10T08:41:57.710Z,9.30
2019-02-10T08:44:49.438Z,9.50
2019-02-10T08:47:38.021Z,9.50
2019-02-10T08:50:43.546Z,9.60
2019-02-10T08:53:15.799Z,9.50
2019-02-10T08:55:45.155Z,9.70
2019-02-10T08:58:14.147Z,9.70
2019-02-10T09:00:43.163Z,9.80
2019-02-10T09:03:19.243Z,9.90
2019-02-10T09:05:42.842Z,9.90
2019-02-10T09:08:11.929Z,9.90
2019-02-10T09:10:40.927Z,10.00
2019-02-10T09:13:09.926Z,10.10
2019-02-10T09:15:39.808Z,10.10
2019-02-10T09:18:08.782Z,10.00
2019-02-10T09:20:37.763Z,10.20
2019-02-10T09:23:06.810Z,10.30
2019-02-10T09:25:35.881Z,10.40
2019-02-10T09:28:05.026Z,10.30
2019-02-10T09:30:34.067Z,10.30
2019-02-10T09:33:03.071Z,10.30
2019-02-10T09:35:32.257Z,10.30
2019-02-10T09:38:01.256Z,10.30
2019-02-10T09:40:30.211Z,10.30
2019-02-10T09:42:59.198Z,10.30
2019-02-10T09:45:28.165Z,10.40
2019-02-10T09:47:57.331Z,10.50
2019-02-10T09:50:26.299Z,10.60
2019-02-10T09:52:55.323Z,10.60
2019-02-10T09:55:24.288Z,10.70
2019-02-10T09:57:53.360Z,10.70
2019-02-10T10:00:22.341Z,10.80
2019-02-10T10:02:51.394Z,10.70
2019-02-10T10:05:20.368Z,10.90
2019-02-10T10:07:49.378Z,10.80
2019-02-10T10:10:18.339Z,10.80
2019-02-10T10:12:47.331Z,10.90
2019-02-10T10:15:17.424Z,10.80
2019-02-10T10:17:46.413Z,10.70
2019-02-10T10:20:19.109Z,10.80
2019-02-10T10:22:48.165Z,10.90
2019-02-10T10:25:17.200Z,11.00
2019-02-10T10:27:46.216Z,10.90
2019-02-10T10:30:18.267Z,10.90
2019-02-10T10:32:47.250Z,10.80
2019-02-10T10:35:16.290Z,10.70
2019-02-10T10:37:45.271Z,10.40
2019-02-10T10:40:14.502Z,10.70
2019-02-10T10:42:43.514Z,10.80
2019-02-10T10:45:14.308Z,10.50
2019-02-10T10:47:43.570Z,10.80
2019-02-10T10:50:14.112Z,10.80
2019-02-10T10:52:43.175Z,10.60
2019-02-10T10:55:13.104Z,10.90
2019-02-10T10:57:42.224Z,11.00
2019-02-10T11:00:15.187Z,11.10
2019-02-10T11:02:44.268Z,11.10
2019-02-10T11:05:14.849Z,11.10
2019-02-10T11:07:44.334Z,11.20
2019-02-10T11:10:13.662Z,11.10
2019-02-10T11:12:42.769Z,11.20
2019-02-10T11:15:13.898Z,11.30
2019-02-10T11:17:42.862Z,11.20
2019-02-10T11:20:12.586Z,11.10
2019-02-10T11:22:41.775Z,11.00
2019-02-10T11:25:11.607Z,11.40
2019-02-10T11:27:40.678Z,11.20
2019-02-10T11:30:14.833Z,11.40
2019-02-10T11:32:43.851Z,11.40
2019-02-10T11:35:13.291Z,11.50
2019-02-10T11:37:42.479Z,11.30
2019-02-10T11:40:14.578Z,11.10
2019-02-10T11:42:43.578Z,11.10
2019-02-10T11:45:16.671Z,11.20
2019-02-10T11:47:45.626Z,11.40
2019-02-10T11:50:15.058Z,11.40
2019-02-10T11:52:44.118Z,11.20
2019-02-10T11:55:13.453Z,11.40
2019-02-10T11:57:42.499Z,11.20
2019-02-10T12:00:18.318Z,11.50
2019-02-10T12:02:47.323Z,11.40
2019-02-10T12:05:16.352Z,11.20
2019-02-10T12:07:45.314Z,11.00
2019-02-10T12:10:14.650Z,11.40
2019-02-10T12:12:43.612Z,11.40
2019-02-10T12:15:14.907Z,10.90
2019-02-10T12:17:43.978Z,11.20
2019-02-10T12:20:14.510Z,11.40
2019-02-10T12:22:49.974Z,11.20
2019-02-10T12:25:14.303Z,11.00
2019-02-10T12:27:43.343Z,11.30
2019-02-10T12:30:17.062Z,10.90
2019-02-10T12:32:46.036Z,11.20
2019-02-10T12:35:15.033Z,11.30
2019-02-10T12:37:43.982Z,11.10
2019-02-10T12:40:13.044Z,11.10
2019-02-10T12:42:42.031Z,10.80
2019-02-10T12:45:12.585Z,10.70
2019-02-10T12:47:41.675Z,11.10
2019-02-10T12:50:12.503Z,10.90
2019-02-10T12:52:41.651Z,11.00
2019-02-10T12:55:12.106Z,11.10
2019-02-10T12:57:41.144Z,11.00
2019-02-10T13:00:13.279Z,10.80
2019-02-10T13:02:42.245Z,11.00
2019-02-10T13:05:11.382Z,10.80
2019-02-10T13:07:40.620Z,11.20
2019-02-10T13:10:15.809Z,11.20
2019-02-10T13:12:44.850Z,10.50
2019-02-10T13:15:14.202Z,10.80
2019-02-10T13:17:43.348Z,10.90
2019-02-10T13:20:13.499Z,11.10
2019-02-10T13:22:42.520Z,11.10
2019-02-10T13:25:12.929Z,11.10
2019-02-10T13:27:41.975Z,10.80
2019-02-10T13:30:17.905Z,10.80
2019-02-10T13:32:46.947Z,11.00
2019-02-10T13:35:16.014Z,10.70
2019-02-10T13:37:45.062Z,10.90
2019-02-10T13:40:18.342Z,11.00
2019-02-10T13:42:47.379Z,10.80
2019-02-10T13:45:16.369Z,10.90
2019-02-10T13:47:45.317Z,10.80
2019-02-10T13:50:16.568Z,10.80
2019-02-10T13:52:45.608Z,10.80
2019-02-10T13:55:15.826Z,10.90
2019-02-10T13:57:44.855Z,11.00
2019-02-10T14:00:22.274Z,10.90
2019-02-10T14:02:51.233Z,10.50
2019-02-10T14:05:20.380Z,10.40
2019-02-10T14:07:50.783Z,10.80
2019-02-10T14:10:25.785Z,10.50
2019-02-10T14:12:50.842Z,10.40
2019-02-10T14:15:20.488Z,10.50
2019-02-10T14:17:49.464Z,10.40
2019-02-10T14:20:21.604Z,10.60
2019-02-10T14:22:50.565Z,10.50
2019-02-10T14:25:19.563Z,10.20
2019-02-10T14:27:48.529Z,10.50
2019-02-10T14:30:22.927Z,10.00
2019-02-10T14:32:51.906Z,10.40
2019-02-10T14:35:20.986Z,10.30
2019-02-10T14:37:49.958Z,10.40
2019-02-10T14:40:19.043Z,10.10
2019-02-10T14:42:48.256Z,10.30
2019-02-10T14:45:17.299Z,10.50
2019-02-10T14:47:46.270Z,10.40
2019-02-10T14:50:16.810Z,10.10
2019-02-10T14:52:46.046Z,10.10
2019-02-10T14:55:15.111Z,10.00
2019-02-10T14:57:44.250Z,10.10
2019-02-10T15:00:17.174Z,9.90
2019-02-10T15:02:46.155Z,10.10
2019-02-10T15:05:15.172Z,10.10
2019-02-10T15:07:44.302Z,10.20
2019-02-10T15:10:18.483Z,9.90
2019-02-10T15:12:47.642Z,10.10
2019-02-10T15:15:16.808Z,10.00
2019-02-10T15:17:45.802Z,9.90
2019-02-10T15:20:14.863Z,10.20
2019-02-10T15:22:43.888Z,10.20
2019-02-10T15:25:14.383Z,10.10
2019-02-10T15:27:43.375Z,9.90
2019-02-10T15:30:14.276Z,10.10
2019-02-10T15:32:43.266Z,9.70
2019-02-10T15:35:12.530Z,9.60
2019-02-10T15:37:41.586Z,9.50
2019-02-10T15:40:12.180Z,9.80
2019-02-10T15:42:41.236Z,9.70
2019-02-10T15:45:14.055Z,9.80
2019-02-10T15:47:43.569Z,9.40
2019-02-10T15:50:16.030Z,9.50
2019-02-10T15:52:45.122Z,9.80
2019-02-10T15:55:14.528Z,9.70
2019-02-10T15:57:43.488Z,9.40
2019-02-10T16:00:18.335Z,9.70
2019-02-10T16:02:47.378Z,9.80
2019-02-10T16:05:16.405Z,9.40
2019-02-10T16:07:45.498Z,9.80
2019-02-10T16:10:14.462Z,9.40
2019-02-10T16:12:43.481Z,9.10
2019-02-10T16:15:12.974Z,9.60
2019-02-10T16:17:42.115Z,9.50
2019-02-10T16:20:13.026Z,9.20
2019-02-10T16:22:42.057Z,9.10
2019-02-10T16:25:11.158Z,9.00
2019-02-10T16:27:40.210Z,9.30
2019-02-10T16:30:16.362Z,9.40
2019-02-10T16:32:50.099Z,9.10
2019-02-10T16:35:16.118Z,9.20
2019-02-10T16:37:45.111Z,9.20
2019-02-10T16:40:18.944Z,8.80
2019-02-10T16:42:47.921Z,8.70
2019-02-10T16:45:17.006Z,8.90
2019-02-10T16:47:46.104Z,9.10
2019-02-10T16:50:16.527Z,8.70
2019-02-10T16:52:45.568Z,8.80
2019-02-10T16:55:19.679Z,9.00
2019-02-10T16:57:48.658Z,8.70
2019-02-10T17:00:17.978Z,8.80
2019-02-10T17:02:46.991Z,8.90
2019-02-10T17:05:16.209Z,8.70
2019-02-10T17:07:45.253Z,9.00
2019-02-10T17:10:17.493Z,8.90
2019-02-10T17:12:46.778Z,8.60
2019-02-10T17:15:15.902Z,8.50
2019-02-10T17:17:44.939Z,8.80
2019-02-10T17:20:18.084Z,8.90
2019-02-10T17:22:47.270Z,9.00
2019-02-10T17:25:27.602Z,8.30
2019-02-10T17:27:56.618Z,8.60
2019-02-10T17:30:25.667Z,8.50
2019-02-10T17:32:54.708Z,8.70
2019-02-10T17:35:23.719Z,8.60
2019-02-10T17:37:52.744Z,8.60
2019-02-10T17:40:33.582Z,8.00
2019-02-10T17:43:03.107Z,8.20
2019-02-10T17:45:32.322Z,8.20
2019-02-10T17:48:01.539Z,8.40
2019-02-10T17:50:30.663Z,8.30
2019-02-10T17:52:59.608Z,8.50
2019-02-10T17:55:28.604Z,8.30
2019-02-10T17:57:57.620Z,8.10
2019-02-10T18:00:34.302Z,8.40
2019-02-10T18:03:03.482Z,8.50
2019-02-10T18:05:32.616Z,8.70
2019-02-10T18:08:01.670Z,8.30
2019-02-10T18:10:30.638Z,8.10
2019-02-10T18:12:59.611Z,8.10
2019-02-10T18:15:46.723Z,8.50
2019-02-10T18:18:23.526Z,8.50
2019-02-10T18:20:54.128Z,8.70
2019-02-10T18:23:36.699Z,8.60
2019-02-10T18:26:07.285Z,8.50
2019-02-10T18:28:40.379Z,8.50
2019-02-10T18:31:13.961Z,8.30
2019-02-10T18:33:53.374Z,8.20
2019-02-10T18:36:24.025Z,7.80
2019-02-10T18:38:57.615Z,8.10
2019-02-10T18:41:39.142Z,7.60
2019-02-10T18:44:06.524Z,8.20
2019-02-10T18:46:37.140Z,8.20
2019-02-10T18:49:24.169Z,8.20
2019-02-10T18:52:09.880Z,8.30
2019-02-10T18:54:49.398Z,8.20
2019-02-10T18:57:20.018Z,8.40
2019-02-10T19:00:08.943Z,8.20
2019-02-10T19:02:39.570Z,8.10
2019-02-10T19:05:15.937Z,8.20
2019-02-10T19:07:52.484Z,7.90
2019-02-10T19:10:23.167Z,8.20
2019-02-10T19:12:56.565Z,7.70
2019-02-10T19:15:43.543Z,7.80
2019-02-10T19:18:14.195Z,8.10
2019-02-10T19:21:00.685Z,8.20
2019-02-10T19:23:37.022Z,8.10
2019-02-10T19:26:07.651Z,8.00
2019-02-10T19:28:44.527Z,7.90
2019-02-10T19:31:18.055Z,8.10
2019-02-10T19:33:48.676Z,8.00
2019-02-10T19:36:19.270Z,7.90
2019-02-10T19:38:52.724Z,8.10
2019-02-10T19:41:35.337Z,8.40
2019-02-10T19:44:25.320Z,8.10
2019-02-10T19:46:55.939Z,8.10
2019-02-10T19:49:41.584Z,8.20
2019-02-10T19:52:24.183Z,7.80
2019-02-10T19:54:54.778Z,8.50
2019-02-10T19:57:28.283Z,8.30
2019-02-10T20:00:01.848Z,8.30
2019-02-10T20:02:32.472Z,8.20
2019-02-10T20:05:05.814Z,8.30
2019-02-10T20:07:36.430Z,8.10
2019-02-10T20:10:08.891Z,8.10
2019-02-10T20:12:39.533Z,8.20
2019-02-10T20:15:11.586Z,8.10
2019-02-10T20:17:58.462Z,8.20
2019-02-10T20:20:29.099Z,8.20
2019-02-10T20:22:59.740Z,8.30
2019-02-10T20:25:30.559Z,8.30
2019-02-10T20:28:01.201Z,8.20
2019-02-10T20:30:31.899Z,8.00
2019-02-10T20:33:17.606Z,8.40
2019-02-10T20:35:54.602Z,8.40
2019-02-10T20:38:25.342Z,8.50
2019-02-10T20:40:55.925Z,8.30
2019-02-10T20:43:35.269Z,8.10
2019-02-10T20:46:21.264Z,8.20
2019-02-10T20:48:51.910Z,8.00
2019-02-10T20:51:22.590Z,8.20
2019-02-10T20:54:01.961Z,8.30
2019-02-10T20:56:35.242Z,8.20
2019-02-10T20:59:22.054Z,8.20
2019-02-10T21:02:01.613Z,8.30
2019-02-10T21:04:32.215Z,8.30
2019-02-10T21:07:02.874Z,8.10
2019-02-10T21:09:39.259Z,8.10
2019-02-10T21:12:24.889Z,8.00
2019-02-10T21:15:01.168Z,8.10
2019-02-10T21:17:34.506Z,7.80
2019-02-10T21:20:05.649Z,7.90
2019-02-10T21:22:36.262Z,7.90
2019-02-10T21:25:14.623Z,8.00
2019-02-10T21:27:57.197Z,8.00
2019-02-10T21:30:27.902Z,8.10
2019-02-10T21:33:00.958Z,8.00
2019-02-10T21:35:37.046Z,8.10
2019-02-10T21:38:07.767Z,8.00
2019-02-10T21:40:41.300Z,8.00
2019-02-10T21:43:15.146Z,8.00
2019-02-10T21:45:48.417Z,8.10
2019-02-10T21:48:21.739Z,7.90
2019-02-10T21:50:50.711Z,7.60
2019-02-10T21:53:19.809Z,7.90
2019-02-10T21:55:48.761Z,7.70
2019-02-10T21:58:17.717Z,7.80
2019-02-10T22:00:46.690Z,7.60
2019-02-10T22:03:15.756Z,7.70
2019-02-10T22:05:44.730Z,7.30
2019-02-10T22:08:13.755Z,7.90
2019-02-10T22:10:42.706Z,7.60
2019-02-10T22:13:11.732Z,7.90
2019-02-10T22:15:40.695Z,7.70
2019-02-10T22:18:09.709Z,7.70
2019-02-10T22:20:38.774Z,7.60
2019-02-10T22:23:07.770Z,7.40
2019-02-10T22:25:36.738Z,7.60
2019-02-10T22:28:05.779Z,7.90
2019-02-10T22:30:34.759Z,7.60
2019-02-10T22:33:03.889Z,7.60
2019-02-10T22:35:32.851Z,7.40
2019-02-10T22:38:01.827Z,7.70
2019-02-10T22:40:30.828Z,7.50
2019-02-10T22:42:59.814Z,7.60
2019-02-10T22:45:28.827Z,7.20
2019-02-10T22:47:57.781Z,7.40
2019-02-10T22:50:26.770Z,7.50
2019-02-10T22:52:55.730Z,7.40
2019-02-10T22:55:24.715Z,7.60
2019-02-10T22:57:53.790Z,7.10
2019-02-10T23:00:32.898Z,7.50
2019-02-10T23:03:01.898Z,7.30
2019-02-10T23:05:30.910Z,7.50
2019-02-10T23:07:59.866Z,7.50
2019-02-10T23:10:28.847Z,7.50
2019-02-10T23:12:57.879Z,7.40
2019-02-10T23:15:26.863Z,7.70
2019-02-10T23:17:55.820Z,7.60
2019-02-10T23:20:24.790Z,7.50
2019-02-10T23:22:53.762Z,7.30
2019-02-10T23:25:22.798Z,7.40
2019-02-10T23:27:51.749Z,7.10
2019-02-10T23:30:20.722Z,7.40
2019-02-10T23:32:49.713Z,7.10
2019-02-10T23:35:18.764Z,7.10
2019-02-10T23:37:47.745Z,7.20
2019-02-10T23:40:16.792Z,7.20
2019-02-10T23:42:45.745Z,7.20
2019-02-10T23:45:14.717Z,7.20
2019-02-10T23:47:43.766Z,7.00
2019-02-10T23:50:12.876Z,6.90
2019-02-10T23:52:41.820Z,7.30
2019-02-10T23:55:10.942Z,6.70
2019-02-10T23:57:39.958Z,7.20
